createdAt,value
2023-04-17T00:00:14.706Z,24.17
2023-04-17T00:02:41.809Z,24.60
2023-04-17T00:05:09.564Z,25.10
2023-04-17T00:07:38.881Z,22.77
2023-04-17T00:10:10.371Z,21.63
2023-04-17T00:12:37.936Z,21.92
2023-04-17T00:15:05.074Z,20.70
2023-04-17T00:17:32.448Z,22.48
2023-04-17T00:19:59.209Z,21.80
2023-04-17T00:22:26.170Z,20.30
2023-04-17T00:24:53.000Z,21.50
2023-04-17T00:27:19.912Z,22.02
2023-04-17T00:29:46.675Z,21.85
2023-04-17T00:32:13.557Z,22.85
2023-04-17T00:34:40.984Z,22.15
2023-04-17T00:37:07.817Z,21.20
2023-04-17T00:39:34.691Z,22.85
2023-04-17T00:42:01.683Z,22.73
2023-04-17T00:44:28.601Z,20.58
2023-04-17T00:46:56.562Z,21.67
2023-04-17T00:49:23.680Z,22.42
2023-04-17T00:51:50.806Z,22.92
2023-04-17T00:54:19.197Z,21.30
2023-04-17T00:56:46.337Z,21.95
2023-04-17T00:59:16.129Z,23.48
2023-04-17T01:01:45.123Z,23.05
2023-04-17T01:04:12.622Z,23.20
2023-04-17T01:06:40.557Z,22.95
2023-04-17T01:09:08.090Z,25.05
2023-04-17T01:11:34.873Z,24.58
2023-04-17T01:14:01.995Z,25.95
2023-04-17T01:16:30.420Z,24.52
2023-04-17T01:18:57.366Z,25.30
2023-04-17T01:21:25.621Z,23.65
2023-04-17T01:23:53.247Z,23.20
2023-04-17T01:26:23.116Z,25.33
2023-04-17T01:28:54.396Z,23.70
2023-04-17T01:31:21.452Z,24.73
2023-04-17T01:33:48.830Z,25.52
2023-04-17T01:36:15.885Z,24.90
2023-04-17T01:38:42.694Z,23.95
2023-04-17T01:41:10.319Z,22.75
2023-04-17T01:43:38.290Z,22.08
2023-04-17T01:46:05.494Z,23.88
2023-04-17T01:48:33.082Z,22.80
2023-04-17T01:51:00.053Z,22.38
2023-04-17T01:53:27.268Z,23.55
2023-04-17T01:55:54.453Z,24.00
2023-04-17T01:58:21.499Z,22.58
2023-04-17T02:00:49.008Z,22.27
2023-04-17T02:03:16.609Z,22.98
2023-04-17T02:05:47.359Z,21.83
2023-04-17T02:08:14.425Z,21.67
2023-04-17T02:10:41.917Z,20.92
2023-04-17T02:13:09.581Z,21.67
2023-04-17T02:15:39.604Z,20.83
2023-04-17T02:18:06.712Z,21.63
2023-04-17T02:20:35.860Z,20.85
2023-04-17T02:23:03.535Z,22.60
2023-04-17T02:25:31.462Z,19.63
2023-04-17T02:27:58.382Z,19.50
2023-04-17T02:30:27.693Z,19.67
2023-04-17T02:32:56.409Z,18.92
2023-04-17T02:35:24.593Z,21.05
2023-04-17T02:37:51.843Z,18.80
2023-04-17T02:40:21.540Z,19.65
2023-04-17T02:42:51.766Z,18.88
2023-04-17T02:45:18.674Z,19.17
2023-04-17T02:47:45.635Z,18.60
2023-04-17T02:50:12.498Z,18.80
2023-04-17T02:52:50.158Z,19.23
2023-04-17T02:55:17.527Z,19.40
2023-04-17T02:57:44.321Z,19.08
2023-04-17T03:00:14.148Z,17.63
2023-04-17T03:02:41.344Z,17.77
2023-04-17T03:05:08.394Z,17.33
2023-04-17T03:07:35.299Z,17.95
2023-04-17T03:10:02.953Z,18.90
2023-04-17T03:12:30.974Z,17.27
2023-04-17T03:14:57.903Z,17.55
2023-04-17T03:17:24.748Z,17.58
2023-04-17T03:19:52.577Z,18.15
2023-04-17T03:22:19.391Z,18.65
2023-04-17T03:24:47.576Z,16.88
2023-04-17T03:27:14.636Z,17.67
2023-04-17T03:29:42.453Z,17.40
2023-04-17T03:32:10.056Z,17.10
2023-04-17T03:34:37.087Z,18.05
2023-04-17T03:37:03.954Z,18.98
2023-04-17T03:39:31.548Z,19.13
2023-04-17T03:41:58.407Z,18.52
2023-04-17T03:44:25.473Z,17.73
2023-04-17T03:46:52.391Z,16.25
2023-04-17T03:49:19.378Z,18.83
2023-04-17T03:51:46.350Z,17.77
2023-04-17T03:54:18.152Z,17.95
2023-04-17T03:56:47.863Z,18.27
2023-04-17T03:59:14.557Z,18.30
2023-04-17T04:01:45.349Z,17.73
2023-04-17T04:04:17.958Z,18.40
2023-04-17T04:06:47.347Z,16.80
2023-04-17T04:09:16.259Z,17.98
2023-04-17T04:11:43.291Z,19.17
2023-04-17T04:14:10.806Z,17.60
2023-04-17T04:16:38.311Z,19.58
2023-04-17T04:19:11.292Z,18.90
2023-04-17T04:21:38.348Z,20.60
2023-04-17T04:24:08.612Z,19.52
2023-04-17T04:26:41.086Z,19.77
2023-04-17T04:29:09.019Z,20.42
2023-04-17T04:32:02.076Z,18.85
2023-04-17T04:34:36.460Z,19.23
2023-04-17T04:37:03.536Z,21.15
2023-04-17T04:39:38.290Z,21.83
2023-04-17T04:42:10.397Z,20.90
2023-04-17T04:44:51.890Z,20.98
2023-04-17T04:47:20.442Z,20.85
2023-04-17T04:49:49.268Z,21.63
2023-04-17T04:52:19.929Z,22.25
2023-04-17T04:54:50.753Z,22.17
2023-04-17T04:57:17.536Z,23.00
2023-04-17T04:59:46.752Z,20.88
2023-04-17T05:02:34.200Z,22.13
2023-04-17T05:05:02.257Z,21.50
2023-04-17T05:07:32.288Z,22.75
2023-04-17T05:10:00.548Z,21.85
2023-04-17T05:12:31.596Z,23.17
2023-04-17T05:14:58.392Z,23.38
2023-04-17T05:17:26.160Z,22.92
2023-04-17T05:19:53.323Z,22.70
2023-04-17T05:22:21.988Z,23.58
2023-04-17T05:25:05.737Z,22.70
2023-04-17T05:27:32.537Z,23.40
2023-04-17T05:30:00.470Z,22.90
2023-04-17T05:32:27.544Z,24.70
2023-04-17T05:34:58.402Z,23.95
2023-04-17T05:37:27.405Z,22.92
2023-04-17T05:39:55.836Z,23.70
2023-04-17T05:42:22.617Z,25.42
2023-04-17T05:44:49.335Z,25.10
2023-04-17T05:47:16.211Z,24.83
2023-04-17T05:49:44.019Z,24.77
2023-04-17T05:52:11.117Z,24.13
2023-04-17T05:54:42.728Z,26.33
2023-04-17T05:57:09.621Z,24.67
2023-04-17T05:59:37.297Z,26.45
2023-04-17T06:02:04.917Z,25.13
2023-04-17T06:04:33.177Z,23.85
2023-04-17T06:07:02.560Z,23.83
2023-04-17T06:09:29.402Z,24.02
2023-04-17T06:11:56.641Z,24.52
2023-04-17T06:14:23.363Z,23.83
2023-04-17T06:16:50.754Z,25.45
2023-04-17T06:19:17.672Z,25.10
2023-04-17T06:21:45.203Z,25.17
2023-04-17T06:24:15.073Z,24.90
2023-04-17T06:26:46.196Z,25.67
2023-04-17T06:29:13.941Z,22.67
2023-04-17T06:31:41.686Z,21.58
2023-04-17T06:34:09.474Z,23.67
2023-04-17T06:36:41.174Z,24.35
2023-04-17T06:39:08.339Z,22.02
2023-04-17T06:41:35.156Z,22.27
2023-04-17T06:44:02.079Z,21.73
2023-04-17T06:46:44.461Z,21.83
2023-04-17T06:49:12.453Z,23.27
2023-04-17T06:51:39.621Z,22.90
2023-04-17T06:54:06.460Z,22.13
2023-04-17T06:56:35.784Z,23.88
2023-04-17T06:59:03.175Z,21.42
2023-04-17T07:01:35.123Z,22.88
2023-04-17T07:04:02.433Z,23.38
2023-04-17T07:06:29.377Z,22.48
2023-04-17T07:08:57.423Z,24.30
2023-04-17T07:11:24.202Z,22.52
2023-04-17T07:13:51.316Z,22.38
2023-04-17T07:16:18.240Z,22.73
2023-04-17T07:18:45.044Z,24.80
2023-04-17T07:21:11.989Z,25.15
2023-04-17T07:23:38.969Z,23.13
2023-04-17T07:26:06.572Z,23.58
2023-04-17T07:28:34.212Z,24.27
2023-04-17T07:31:00.992Z,24.75
2023-04-17T07:33:27.891Z,24.95
2023-04-17T07:35:54.760Z,25.17
2023-04-17T07:38:21.700Z,25.15
2023-04-17T07:40:48.655Z,24.23
2023-04-17T07:43:16.719Z,24.27
2023-04-17T07:45:43.639Z,24.73
2023-04-17T07:48:11.096Z,23.13
2023-04-17T07:50:37.889Z,23.30
2023-04-17T07:53:04.702Z,23.00
2023-04-17T07:55:34.475Z,22.58
2023-04-17T07:58:03.630Z,22.52
2023-04-17T08:00:30.839Z,22.30
2023-04-17T08:02:58.328Z,23.20
2023-04-17T08:05:25.579Z,22.50
2023-04-17T08:07:52.579Z,22.58
2023-04-17T08:10:19.719Z,23.45
2023-04-17T08:12:46.508Z,23.13
2023-04-17T08:15:13.427Z,23.33
2023-04-17T08:17:41.436Z,23.13
2023-04-17T08:20:11.730Z,23.27
2023-04-17T08:22:39.713Z,22.80
2023-04-17T08:25:09.753Z,23.73
2023-04-17T08:27:37.092Z,24.45
2023-04-17T08:30:04.703Z,23.15
2023-04-17T08:32:37.530Z,22.77
2023-04-17T08:35:04.614Z,20.77
2023-04-17T08:37:32.177Z,21.65
2023-04-17T08:39:59.051Z,22.60
2023-04-17T08:42:26.039Z,21.50
2023-04-17T08:44:53.619Z,20.70
2023-04-17T08:47:20.454Z,22.73
2023-04-17T08:49:47.437Z,22.20
2023-04-17T08:52:14.548Z,22.55
2023-04-17T08:54:41.727Z,20.52
2023-04-17T08:57:10.941Z,21.00
2023-04-17T08:59:37.889Z,21.17
2023-04-17T09:02:08.320Z,21.50
2023-04-17T09:04:37.464Z,22.38
2023-04-17T09:07:05.140Z,23.13
2023-04-17T09:09:47.649Z,22.90
2023-04-17T09:12:14.489Z,22.15
2023-04-17T09:14:41.368Z,22.02
2023-04-17T09:17:08.256Z,21.15
2023-04-17T09:19:35.488Z,21.13
2023-04-17T09:22:21.236Z,21.83
2023-04-17T09:24:48.859Z,23.10
2023-04-17T09:27:22.426Z,22.33
2023-04-17T09:29:59.511Z,21.52
2023-04-17T09:32:26.601Z,20.58
2023-04-17T09:34:53.990Z,20.73
2023-04-17T09:37:21.115Z,21.27
2023-04-17T09:39:58.898Z,20.33
2023-04-17T09:42:26.554Z,20.65
2023-04-17T09:44:54.625Z,20.30
2023-04-17T09:47:22.767Z,21.00
2023-04-17T09:49:52.421Z,20.10
2023-04-17T09:52:20.007Z,19.88
2023-04-17T09:54:47.411Z,19.85
2023-04-17T09:57:14.235Z,21.58
2023-04-17T09:59:41.929Z,20.70
2023-04-17T10:02:12.562Z,20.98
2023-04-17T10:04:40.753Z,19.92
2023-04-17T10:07:07.907Z,19.77
2023-04-17T10:09:34.910Z,20.73
2023-04-17T10:12:04.063Z,20.83
2023-04-17T10:14:32.653Z,20.98
2023-04-17T10:17:02.117Z,19.88
2023-04-17T10:19:36.712Z,21.08
2023-04-17T10:22:15.884Z,21.13
2023-04-17T10:24:43.106Z,20.25
2023-04-17T10:27:29.165Z,19.70
2023-04-17T10:29:57.121Z,20.83
2023-04-17T10:32:31.291Z,20.55
2023-04-17T10:34:59.404Z,20.92
2023-04-17T10:37:45.293Z,22.00
2023-04-17T10:40:14.098Z,21.23
2023-04-17T10:42:41.194Z,21.15
2023-04-17T10:45:18.206Z,22.63
2023-04-17T10:47:57.937Z,21.73
2023-04-17T10:50:28.186Z,21.27
2023-04-17T10:52:54.908Z,20.63
2023-04-17T10:55:23.208Z,19.95
2023-04-17T10:57:53.305Z,21.40
2023-04-17T11:00:21.556Z,20.55
2023-04-17T11:02:50.452Z,20.10
2023-04-17T11:05:18.258Z,20.98
2023-04-17T11:07:50.714Z,20.73
2023-04-17T11:10:21.702Z,21.05
2023-04-17T11:12:49.277Z,20.70
2023-04-17T11:15:18.937Z,20.83
2023-04-17T11:17:46.989Z,19.90
2023-04-17T11:20:17.388Z,20.20
2023-04-17T11:22:44.779Z,19.75
2023-04-17T11:25:21.768Z,21.15
2023-04-17T11:27:52.747Z,20.67
2023-04-17T11:30:25.964Z,21.38
2023-04-17T11:32:53.501Z,22.08
2023-04-17T11:35:24.890Z,20.42
2023-04-17T11:38:04.763Z,20.55
2023-04-17T11:40:31.812Z,20.50
2023-04-17T11:43:03.138Z,20.52
2023-04-17T11:45:34.316Z,20.00
2023-04-17T11:48:02.565Z,20.40
2023-04-17T11:50:29.979Z,21.20
2023-04-17T11:52:57.711Z,20.08
2023-04-17T11:55:30.288Z,21.48
2023-04-17T11:58:07.490Z,20.90
2023-04-17T12:00:34.484Z,18.90
2023-04-17T12:03:02.462Z,20.02
2023-04-17T12:05:30.147Z,18.92
2023-04-17T12:08:04.610Z,18.80
2023-04-17T12:10:37.502Z,20.10
2023-04-17T12:13:04.499Z,19.67
2023-04-17T12:15:31.321Z,20.50
2023-04-17T12:17:58.244Z,21.35
2023-04-17T12:20:26.787Z,18.92
2023-04-17T12:22:54.427Z,21.70
2023-04-17T12:25:21.632Z,20.70
2023-04-17T12:27:49.446Z,19.98
2023-04-17T12:30:16.505Z,20.23
2023-04-17T12:32:49.778Z,19.75
2023-04-17T12:35:16.592Z,19.98
2023-04-17T12:37:48.366Z,19.35
2023-04-17T12:40:16.981Z,18.65
2023-04-17T12:42:49.163Z,18.92
2023-04-17T12:45:17.116Z,18.55
2023-04-17T12:47:44.328Z,19.95
2023-04-17T12:50:14.160Z,18.95
2023-04-17T12:52:41.434Z,18.50
2023-04-17T12:55:08.698Z,18.65
2023-04-17T12:57:36.727Z,18.63
2023-04-17T13:00:09.678Z,19.55
2023-04-17T13:02:36.678Z,19.38
2023-04-17T13:05:04.805Z,19.38
2023-04-17T13:07:31.845Z,18.38
2023-04-17T13:09:58.837Z,16.88
2023-04-17T13:12:26.152Z,16.40
2023-04-17T13:14:53.144Z,15.30
2023-04-17T13:17:21.138Z,17.75
2023-04-17T13:19:48.261Z,19.00
2023-04-17T13:22:16.133Z,16.23
2023-04-17T13:24:43.254Z,18.52
2023-04-17T13:27:10.671Z,16.23
2023-04-17T13:29:39.175Z,15.15
2023-04-17T13:32:06.211Z,15.07
2023-04-17T13:34:32.951Z,14.18
2023-04-17T13:36:59.945Z,14.27
2023-04-17T13:39:26.999Z,14.25
2023-04-17T13:41:54.247Z,15.13
2023-04-17T13:44:21.545Z,16.35
2023-04-17T13:46:49.483Z,16.35
2023-04-17T13:49:16.287Z,15.70
2023-04-17T13:51:43.392Z,16.45
2023-04-17T13:54:10.589Z,16.88
2023-04-17T13:56:37.478Z,14.88
2023-04-17T13:59:05.982Z,15.07
2023-04-17T14:01:32.912Z,14.13
2023-04-17T14:04:02.859Z,12.93
2023-04-17T14:06:31.403Z,12.65
2023-04-17T14:08:58.401Z,14.93
2023-04-17T14:11:25.147Z,15.18
2023-04-17T14:13:52.223Z,15.43
2023-04-17T14:16:19.432Z,15.60
2023-04-17T14:18:47.653Z,15.30
2023-04-17T14:21:15.105Z,15.68
2023-04-17T14:23:42.162Z,15.02
2023-04-17T14:26:09.387Z,14.68
2023-04-17T14:28:36.145Z,14.40
2023-04-17T14:31:03.328Z,14.70
2023-04-17T14:33:30.217Z,13.32
2023-04-17T14:35:57.760Z,14.13
2023-04-17T14:38:25.048Z,13.23
2023-04-17T14:40:51.848Z,14.05
2023-04-17T14:43:18.680Z,13.45
2023-04-17T14:45:46.706Z,12.15
2023-04-17T14:48:13.688Z,11.27
2023-04-17T14:50:40.829Z,11.02
2023-04-17T14:53:07.572Z,10.25
2023-04-17T14:55:34.504Z,10.10
2023-04-17T14:58:03.937Z,10.50
2023-04-17T15:00:31.926Z,13.18
2023-04-17T15:02:58.755Z,13.73
2023-04-17T15:05:25.817Z,13.50
2023-04-17T15:07:53.160Z,14.65
2023-04-17T15:10:20.028Z,12.88
2023-04-17T15:12:47.181Z,11.55
2023-04-17T15:15:13.991Z,11.63
2023-04-17T15:17:43.920Z,10.88
2023-04-17T15:20:11.344Z,10.32
2023-04-17T15:22:38.556Z,10.07
2023-04-17T15:25:06.145Z,9.82
2023-04-17T15:27:32.995Z,10.52
2023-04-17T15:29:59.828Z,11.18
2023-04-17T15:32:26.937Z,10.73
2023-04-17T15:34:54.020Z,11.68
2023-04-17T15:37:23.394Z,10.57
2023-04-17T15:39:50.633Z,11.50
2023-04-17T15:42:17.535Z,11.30
2023-04-17T15:44:44.461Z,11.93
2023-04-17T15:47:11.314Z,10.98
2023-04-17T15:49:38.220Z,10.75
2023-04-17T15:52:05.694Z,10.98
2023-04-17T15:54:32.941Z,10.25
2023-04-17T15:56:59.916Z,9.68
2023-04-17T15:59:26.746Z,10.63
2023-04-17T16:01:53.777Z,10.43
2023-04-17T16:04:21.089Z,12.25
2023-04-17T16:06:48.032Z,14.10
2023-04-17T16:09:17.949Z,16.55
2023-04-17T16:11:44.867Z,17.02
2023-04-17T16:14:11.776Z,15.65
2023-04-17T16:16:38.620Z,15.23
2023-04-17T16:19:05.828Z,16.10
2023-04-17T16:21:32.825Z,16.80
2023-04-17T16:23:59.754Z,16.77
2023-04-17T16:26:26.612Z,16.60
2023-04-17T16:28:53.646Z,17.60
2023-04-17T16:31:21.360Z,16.40
2023-04-17T16:33:48.373Z,17.23
2023-04-17T16:36:15.176Z,16.30
2023-04-17T16:38:42.216Z,16.98
2023-04-17T16:41:09.239Z,17.48
2023-04-17T16:43:36.513Z,17.60
2023-04-17T16:46:10.914Z,16.52
2023-04-17T16:48:41.577Z,17.33
2023-04-17T16:51:09.390Z,18.23
2023-04-17T16:53:36.301Z,16.75
2023-04-17T16:56:03.219Z,17.00
2023-04-17T16:58:31.180Z,15.38
2023-04-17T17:00:58.006Z,15.55
2023-04-17T17:03:24.972Z,16.20
2023-04-17T17:05:51.976Z,16.27
2023-04-17T17:08:21.107Z,14.95
2023-04-17T17:10:49.149Z,15.15
2023-04-17T17:13:16.075Z,15.52
2023-04-17T17:15:42.944Z,15.18
2023-04-17T17:18:10.361Z,14.70
2023-04-17T17:20:37.158Z,13.80
2023-04-17T17:23:03.846Z,14.95
2023-04-17T17:25:31.160Z,14.43
2023-04-17T17:27:58.034Z,14.07
2023-04-17T17:30:24.780Z,15.05
2023-04-17T17:32:51.652Z,14.82
2023-04-17T17:35:18.872Z,15.02
2023-04-17T17:37:45.686Z,14.32
2023-04-17T17:40:12.772Z,15.30
2023-04-17T17:42:39.632Z,15.20
2023-04-17T17:45:06.677Z,14.40
2023-04-17T17:47:33.690Z,14.68
2023-04-17T17:50:00.787Z,15.65
2023-04-17T17:52:27.608Z,16.52
2023-04-17T17:54:54.736Z,14.95
2023-04-17T17:57:21.598Z,14.90
2023-04-17T17:59:48.461Z,15.48
2023-04-17T18:02:15.551Z,14.57
2023-04-17T18:04:42.641Z,15.13
2023-04-17T18:07:09.625Z,15.27
2023-04-17T18:09:36.863Z,14.82
2023-04-17T18:12:03.997Z,15.75
2023-04-17T18:14:31.772Z,15.02
2023-04-17T18:16:58.780Z,16.98
2023-04-17T18:19:25.674Z,15.80
2023-04-17T18:21:52.474Z,15.35
2023-04-17T18:24:19.360Z,16.23
2023-04-17T18:26:46.484Z,17.48
2023-04-17T18:29:13.284Z,16.25
2023-04-17T18:31:40.738Z,16.75
2023-04-17T18:34:07.749Z,16.55
2023-04-17T18:36:34.550Z,16.10
2023-04-17T18:39:01.468Z,16.60
2023-04-17T18:41:28.429Z,16.63
2023-04-17T18:43:56.796Z,16.35
2023-04-17T18:46:24.456Z,17.67
2023-04-17T18:48:51.421Z,17.15
2023-04-17T18:51:19.124Z,18.20
2023-04-17T18:53:46.051Z,17.15
2023-04-17T18:56:14.906Z,17.50
2023-04-17T18:58:41.879Z,18.50
2023-04-17T19:01:10.905Z,16.95
2023-04-17T19:03:38.216Z,18.33
2023-04-17T19:06:06.742Z,18.13
2023-04-17T19:08:33.947Z,18.05
2023-04-17T19:11:00.875Z,18.98
2023-04-17T19:13:28.587Z,18.73
2023-04-17T19:15:55.760Z,18.77
2023-04-17T19:18:22.616Z,19.40
2023-04-17T19:20:49.659Z,18.70
2023-04-17T19:23:16.896Z,19.33
2023-04-17T19:25:43.865Z,20.02
2023-04-17T19:28:11.403Z,19.85
2023-04-17T19:30:38.788Z,19.98
2023-04-17T19:33:06.920Z,20.23
2023-04-17T19:35:33.873Z,21.73
2023-04-17T19:38:02.922Z,22.67
2023-04-17T19:40:29.707Z,22.65
2023-04-17T19:43:01.267Z,22.00
2023-04-17T19:45:28.264Z,21.85
2023-04-17T19:47:57.108Z,22.10
2023-04-17T19:50:26.538Z,23.33
2023-04-17T19:52:54.238Z,23.45
2023-04-17T19:55:21.298Z,22.23
2023-04-17T19:57:49.634Z,23.38
2023-04-17T20:00:17.987Z,22.10
2023-04-17T20:02:44.994Z,23.75
2023-04-17T20:05:11.986Z,22.80
2023-04-17T20:07:38.804Z,23.08
2023-04-17T20:10:06.630Z,24.65
2023-04-17T20:12:33.307Z,23.50
2023-04-17T20:15:00.249Z,22.95
2023-04-17T20:17:27.171Z,22.77
2023-04-17T20:19:55.433Z,24.15
2023-04-17T20:22:22.337Z,24.00
2023-04-17T20:24:50.811Z,23.63
2023-04-17T20:27:18.851Z,23.55
2023-04-17T20:29:45.612Z,23.23
2023-04-17T20:32:12.444Z,22.33
2023-04-17T20:34:42.423Z,21.48
2023-04-17T20:37:09.673Z,22.25
2023-04-17T20:39:36.684Z,21.73
2023-04-17T20:42:03.866Z,22.63
2023-04-17T20:44:31.584Z,22.27
2023-04-17T20:46:58.368Z,22.45
2023-04-17T20:49:25.352Z,23.65
2023-04-17T20:51:52.073Z,22.98
2023-04-17T20:54:18.829Z,22.45
2023-04-17T20:56:46.191Z,22.05
2023-04-17T20:59:13.057Z,22.33
2023-04-17T21:01:39.867Z,22.13
2023-04-17T21:04:07.091Z,22.92
2023-04-17T21:06:34.143Z,22.88
2023-04-17T21:09:01.087Z,23.33
2023-04-17T21:11:27.882Z,23.08
2023-04-17T21:13:54.786Z,23.00
2023-04-17T21:16:21.769Z,21.58
2023-04-17T21:18:48.772Z,23.25
2023-04-17T21:21:15.833Z,22.42
2023-04-17T21:23:42.783Z,23.17
2023-04-17T21:26:09.763Z,24.13
2023-04-17T21:28:37.629Z,23.23
2023-04-17T21:31:08.459Z,23.27
2023-04-17T21:33:36.582Z,25.08
2023-04-17T21:36:03.506Z,23.98
2023-04-17T21:38:30.451Z,25.02
2023-04-17T21:40:58.275Z,25.35
2023-04-17T21:43:25.247Z,25.13
2023-04-17T21:45:52.378Z,25.33
2023-04-17T21:48:19.688Z,26.40
2023-04-17T21:50:46.577Z,24.27
2023-04-17T21:53:13.391Z,25.52
2023-04-17T21:55:40.973Z,27.20
2023-04-17T21:58:07.895Z,24.38
2023-04-17T22:00:34.803Z,25.13
2023-04-17T22:03:01.905Z,24.63
2023-04-17T22:05:28.722Z,25.42
2023-04-17T22:07:58.423Z,25.63
2023-04-17T22:10:25.364Z,23.88
2023-04-17T22:12:52.398Z,24.13
2023-04-17T22:15:19.369Z,24.13
2023-04-17T22:17:49.162Z,23.65
2023-04-17T22:20:34.908Z,23.17
2023-04-17T22:23:20.465Z,22.90
2023-04-17T22:26:43.825Z,23.27
2023-04-17T22:29:29.457Z,23.05
2023-04-17T22:32:14.642Z,23.45
2023-04-17T22:35:00.194Z,22.98
2023-04-17T22:38:03.884Z,22.05
2023-04-17T22:41:07.902Z,22.45
2023-04-17T22:43:53.609Z,23.37
2023-04-17T22:46:39.242Z,23.13
2023-04-17T22:49:06.619Z,22.10
2023-04-17T22:52:11.081Z,21.58
2023-04-17T22:55:15.523Z,21.70
2023-04-17T22:58:03.866Z,21.23
2023-04-17T23:00:49.738Z,22.13
2023-04-17T23:03:35.358Z,21.27
2023-04-17T23:06:39.732Z,20.52
2023-04-17T23:09:06.543Z,20.65
2023-04-17T23:11:33.802Z,19.27
2023-04-17T23:14:01.398Z,20.17
2023-04-17T23:16:29.218Z,19.80
2023-04-17T23:18:56.196Z,19.88
2023-04-17T23:21:23.140Z,19.42
2023-04-17T23:23:50.698Z,20.63
2023-04-17T23:26:17.664Z,20.27
2023-04-17T23:28:44.503Z,20.20
2023-04-17T23:31:11.456Z,19.20
2023-04-17T23:33:38.299Z,19.73
2023-04-17T23:36:05.104Z,19.33
2023-04-17T23:38:32.167Z,19.52
2023-04-17T23:40:59.026Z,19.90
2023-04-17T23:43:25.742Z,19.77
2023-04-17T23:45:52.721Z,21.05
2023-04-17T23:48:19.814Z,19.52
2023-04-17T23:50:46.692Z,19.75
2023-04-17T23:53:13.748Z,19.33
2023-04-17T23:55:41.497Z,18.50
2023-04-17T23:58:09.370Z,18.85
